Time;durP1;ratioP1;P1;durP2;ratioP2;P2;SDS_P1;SDS_P2;PMS_P1;PMS_P2;Temp;Humidity;BMP_temperature;BMP_pressure;BME280_temperature;BME280_humidity;BME280_pressure;Samples;Min_cycle;Max_cycle;Signal;HPM_P1;HPM_P2
2022/04/12 00:00:10;;;;;;;92.68;41.75;;;;;;;2.56;72.56;100665.50;5014896;28;20025;-75
2022/04/12 00:02:37;;;;;;;94.03;43.25;;;;;;;2.56;72.50;100669.09;5014641;28;20037;-76
2022/04/12 00:05:06;;;;;;;85.75;41.47;;;;;;;2.52;72.25;100667.50;5014697;28;20045;-78
2022/04/12 00:07:31;;;;;;;91.82;41.97;;;;;;;2.48;72.66;100666.75;5016212;28;20029;-77
2022/04/12 00:09:57;;;;;;;85.85;42.30;;;;;;;2.44;72.39;100666.78;5016027;28;20030;-77
2022/04/12 00:12:23;;;;;;;82.32;41.05;;;;;;;2.37;72.57;100669.66;5015914;28;20112;-77
2022/04/12 00:14:50;;;;;;;89.30;42.22;;;;;;;2.35;72.84;100665.66;5015854;28;20025;-76
2022/04/12 00:20:05;;;;;;;82.93;41.60;;;;;;;2.13;73.01;100639.75;4987633;28;20108;-75
2022/04/12 00:22:32;;;;;;;100.95;46.22;;;;;;;2.26;73.37;100660.53;5014551;28;20133;-76
2022/04/12 00:25:00;;;;;;;96.50;46.03;;;;;;;2.27;73.38;100667.72;5015572;28;20029;-77
2022/04/12 00:27:27;;;;;;;94.10;46.20;;;;;;;2.27;73.48;100678.19;5015932;28;20431;-77
2022/04/12 00:30:08;;;;;;;97.65;44.08;;;;;;;2.24;73.69;100671.38;4998124;28;20426;-77
2022/04/12 00:32:34;;;;;;;101.45;45.50;;;;;;;2.25;73.94;100663.75;4988413;28;20108;-76
2022/04/12 00:35:00;;;;;;;92.00;45.58;;;;;;;2.21;73.82;100665.78;5014136;28;20414;-76
2022/04/12 00:37:26;;;;;;;94.03;45.15;;;;;;;2.20;73.79;100676.22;4997755;28;20112;-76
2022/04/12 00:39:51;;;;;;;87.72;43.88;;;;;;;2.16;73.58;100676.25;4981746;28;20034;-76
2022/04/12 00:42:17;;;;;;;105.28;48.17;;;;;;;2.06;73.84;100665.91;5015569;28;20037;-77
2022/04/12 00:44:43;;;;;;;101.43;47.95;;;;;;;2.08;74.20;100671.09;5013939;28;20509;-77
2022/04/12 00:47:29;;;;;;;111.78;48.53;;;;;;;2.09;75.26;100686.72;4997585;28;20463;-77
2022/04/12 00:49:56;;;;;;;107.80;47.45;;;;;;;2.03;74.99;100680.75;4997062;28;20034;-77
2022/04/12 00:52:21;;;;;;;111.53;47.30;;;;;;;2.00;74.78;100690.00;5012361;28;20050;-76
2022/04/12 00:54:49;;;;;;;97.90;46.42;;;;;;;2.02;75.20;100684.00;5012689;28;20053;-76
2022/04/12 00:57:15;;;;;;;97.78;46.58;;;;;;;1.82;75.15;100658.44;5015260;28;20057;-77
2022/04/12 00:59:45;;;;;;;111.78;46.85;;;;;;;1.94;75.49;100694.44;5013655;28;20073;-77
2022/04/12 01:02:12;;;;;;;119.15;47.70;;;;;;;1.91;75.69;100688.88;5013760;28;20032;-76
2022/04/12 01:04:38;;;;;;;98.18;45.55;;;;;;;1.90;75.42;100701.31;5015057;28;20033;-76
2022/04/12 01:07:04;;;;;;;98.15;45.20;;;;;;;1.88;75.58;100686.88;5013677;28;20025;-76
2022/04/12 01:09:34;;;;;;;99.97;46.83;;;;;;;1.86;76.18;100684.50;5013595;28;20033;-76
2022/04/12 01:12:08;;;;;;;106.47;47.13;;;;;;;1.83;75.60;100679.66;5013858;28;20468;-76
2022/04/12 01:14:40;;;;;;;104.78;45.40;;;;;;;1.80;75.64;100688.13;4996947;28;20515;-77
2022/04/12 01:17:17;;;;;;;107.93;45.65;;;;;;;1.77;76.34;100689.75;5013441;28;20479;-78
2022/04/12 01:19:45;;;;;;;104.55;44.85;;;;;;;1.73;76.03;100694.56;5013428;28;20030;-76
2022/04/12 01:22:24;;;;;;;98.35;44.70;;;;;;;1.67;76.41;100691.41;5012152;28;20041;-77
2022/04/12 01:24:50;;;;;;;98.20;45.92;;;;;;;1.64;76.52;100683.00;5011976;28;20029;-77
2022/04/12 01:27:15;;;;;;;106.00;46.80;;;;;;;1.64;76.34;100697.03;5012555;28;20072;-77
2022/04/12 01:29:41;;;;;;;100.88;46.95;;;;;;;1.61;76.60;100692.25;4996785;28;20168;-77
2022/04/12 01:32:08;;;;;;;106.07;46.33;;;;;;;1.58;77.00;100704.28;4996798;28;20037;-76
2022/04/12 01:34:35;;;;;;;97.18;46.80;;;;;;;1.54;77.01;100695.88;5014352;28;20036;-75
2022/04/12 01:37:16;;;;;;;112.45;47.25;;;;;;;1.51;77.04;100693.09;5012901;28;20044;-77
2022/04/12 01:39:41;;;;;;;107.05;46.63;;;;;;;1.48;76.78;100694.69;4991607;28;20112;-76
2022/04/12 01:42:07;;;;;;;99.82;45.80;;;;;;;1.47;77.43;100697.94;5014569;28;20026;-76
2022/04/12 01:44:33;;;;;;;104.18;47.33;;;;;;;1.44;77.52;100699.53;5013900;28;20387;-76
2022/04/12 01:46:59;;;;;;;97.38;45.70;;;;;;;1.44;77.08;100707.94;5013063;28;20037;-77
2022/04/12 01:49:24;;;;;;;107.38;47.78;;;;;;;1.39;77.70;100699.13;5014294;28;20034;-76
2022/04/12 01:51:50;;;;;;;109.10;46.67;;;;;;;1.36;77.39;100702.78;5013946;28;20060;-77
2022/04/12 01:54:16;;;;;;;95.30;45.92;;;;;;;1.33;77.54;100704.41;5012605;28;20087;-76
2022/04/12 01:56:42;;;;;;;101.63;47.80;;;;;;;1.31;77.28;100706.81;5012848;28;20470;-77
2022/04/12 01:59:08;;;;;;;108.93;46.28;;;;;;;1.37;77.50;100712.78;5012983;28;20058;-76
2022/04/12 02:01:34;;;;;;;98.10;45.65;;;;;;;1.35;78.25;100709.59;4996200;28;20494;-76
2022/04/12 02:03:59;;;;;;;104.90;48.10;;;;;;;1.27;78.30;100697.59;5013583;28;20026;-77
2022/04/12 02:06:25;;;;;;;106.28;46.33;;;;;;;1.24;78.24;100695.59;5011743;28;20396;-77
2022/04/12 02:08:52;;;;;;;104.82;46.88;;;;;;;1.30;77.99;100705.19;5013813;28;20497;-76
2022/04/12 02:11:17;;;;;;;98.32;46.28;;;;;;;1.29;78.19;100707.19;5012464;28;20025;-77
2022/04/12 02:13:44;;;;;;;105.72;48.08;;;;;;;1.20;77.43;100694.81;5012537;28;20040;-77
2022/04/12 02:16:09;;;;;;;106.38;45.80;;;;;;;1.24;78.03;100698.41;4996460;28;20125;-76
2022/04/12 02:18:35;;;;;;;102.13;46.80;;;;;;;1.20;78.25;100692.00;5012388;28;20467;-78
2022/04/12 02:21:01;;;;;;;104.28;46.58;;;;;;;1.19;77.95;100691.19;5013817;28;20060;-77
2022/04/12 02:23:27;;;;;;;88.82;44.22;;;;;;;1.12;78.08;100687.63;5012442;28;20427;-76
2022/04/12 02:25:53;;;;;;;90.47;42.35;;;;;;;1.16;77.98;100713.66;5013816;28;20113;-77
2022/04/12 02:28:20;;;;;;;89.82;43.92;;;;;;;1.09;78.40;100694.03;5013768;28;20379;-76
2022/04/12 02:31:00;;;;;;;79.57;43.80;;;;;;;1.07;78.45;100691.66;5012768;28;20040;-76
2022/04/12 02:33:28;;;;;;;94.47;42.95;;;;;;;1.02;78.56;100703.28;5012294;28;20029;-77
2022/04/12 02:35:55;;;;;;;104.38;46.10;;;;;;;0.96;78.40;100695.69;4996318;28;20026;-76
2022/04/12 02:38:21;;;;;;;91.53;44.42;;;;;;;0.98;78.45;100707.31;5013800;28;20037;-78
2022/04/12 02:40:47;;;;;;;90.03;44.30;;;;;;;0.90;78.48;100703.69;5012457;28;20057;-77
2022/04/12 02:43:13;;;;;;;92.10;45.35;;;;;;;0.91;79.16;100704.50;4997622;28;20092;-77
2022/04/12 02:45:39;;;;;;;106.45;48.25;;;;;;;0.86;79.67;100695.31;5017228;28;20049;-78
2022/04/12 02:48:06;;;;;;;101.22;46.80;;;;;;;0.83;78.95;100698.91;5018486;28;20022;-77
2022/04/12 02:50:32;;;;;;;108.10;48.72;;;;;;;0.86;79.66;100709.31;5019250;28;20026;-75
2022/04/12 02:52:58;;;;;;;91.68;43.83;;;;;;;0.76;79.08;100698.13;5013603;28;20058;-77
2022/04/12 02:55:23;;;;;;;100.90;43.55;;;;;;;0.82;78.89;100710.53;4996615;28;20025;-77
2022/04/12 02:57:49;;;;;;;91.60;44.33;;;;;;;0.80;79.15;100715.72;5013109;28;20033;-76
2022/04/12 03:00:15;;;;;;;100.25;45.83;;;;;;;0.78;79.00;100716.16;5012441;28;20095;-76
2022/04/12 03:02:41;;;;;;;95.05;43.95;;;;;;;0.76;79.14;100715.75;5012316;28;20076;-77
2022/04/12 03:05:07;;;;;;;94.20;44.20;;;;;;;0.69;79.37;100703.75;5013138;28;20040;-77
2022/04/12 03:07:32;;;;;;;108.50;47.92;;;;;;;0.70;78.92;100710.94;5010526;28;20048;-77
2022/04/12 03:09:57;;;;;;;97.80;45.10;;;;;;;0.69;78.85;100718.53;5012006;28;20482;-77
2022/04/12 03:12:22;;;;;;;95.63;46.03;;;;;;;0.65;79.65;100711.34;5012052;28;20040;-77
2022/04/12 03:14:48;;;;;;;102.75;46.30;;;;;;;0.62;79.65;100698.13;5013252;28;20022;-77
2022/04/12 03:17:13;;;;;;;106.70;46.55;;;;;;;0.62;79.74;100703.75;5014048;28;20030;-76
2022/04/12 03:19:38;;;;;;;100.65;44.67;;;;;;;0.64;79.73;100706.97;5015421;28;20029;-76
2022/04/12 03:22:04;;;;;;;106.43;47.75;;;;;;;0.60;79.89;100703.34;4999146;28;20541;-77
2022/04/12 03:24:31;;;;;;;95.97;46.25;;;;;;;0.62;80.40;100710.16;5015464;28;20545;-78
2022/04/12 03:26:57;;;;;;;114.60;46.80;;;;;;;0.63;79.75;100710.97;5015480;28;20030;-77
2022/04/12 03:29:22;;;;;;;94.50;45.28;;;;;;;0.52;80.16;100699.75;5016835;28;20514;-78
2022/04/12 03:31:48;;;;;;;101.10;43.13;;;;;;;0.55;79.82;100704.53;5015582;28;20030;-77
2022/04/12 03:34:13;;;;;;;89.80;43.53;;;;;;;0.34;80.46;100676.56;5016745;28;20033;-78
2022/04/12 03:36:38;;;;;;;89.53;43.97;;;;;;;0.55;80.73;100707.34;5017105;28;20062;-77
2022/04/12 03:39:10;;;;;;;91.97;44.83;;;;;;;0.50;80.27;100707.75;5015385;28;20057;-77
2022/04/12 03:41:35;;;;;;;;;;;;;;;0.49;81.40;100720.19;5015770;28;20038;-77
2022/04/12 03:44:01;;;;;;;96.72;43.95;;;;;;;0.40;81.14;100706.53;5016612;28;19996;-77
2022/04/12 03:46:26;;;;;;;96.03;44.00;;;;;;;0.37;80.84;100687.75;5016379;28;20030;-77
2022/04/12 03:48:51;;;;;;;101.30;46.97;;;;;;;0.49;81.16;100719.38;5015315;28;20030;-77
2022/04/12 03:51:17;;;;;;;97.13;44.70;;;;;;;0.49;81.43;100717.38;5016128;28;20054;-77
2022/04/12 03:53:42;;;;;;;97.25;45.47;;;;;;;0.49;81.25;100717.38;5015101;28;20379;-76
2022/04/12 03:56:08;;;;;;;89.32;43.95;;;;;;;0.50;81.58;100713.34;5016121;28;20463;-75
2022/04/12 03:58:37;;;;;;;96.43;44.90;;;;;;;0.52;81.30;100726.97;5014966;28;20108;-77
2022/04/12 04:01:04;;;;;;;103.70;46.33;;;;;;;0.55;81.59;100726.16;5014801;28;20080;-77
2022/04/12 04:03:29;;;;;;;95.22;44.38;;;;;;;0.54;81.93;100730.97;5015586;28;20029;-76
2022/04/12 04:05:55;;;;;;;86.30;43.35;;;;;;;0.56;81.74;100728.56;5014567;28;20055;-77
2022/04/12 04:08:21;;;;;;;90.53;44.50;;;;;;;0.56;81.85;100736.16;4998488;28;20037;-75
2022/04/12 04:10:47;;;;;;;100.15;44.25;;;;;;;0.56;81.26;100731.38;5014743;28;20036;-77
2022/04/12 04:13:14;;;;;;;96.28;46.33;;;;;;;0.58;81.10;100736.56;5014714;28;20033;-77
2022/04/12 04:15:40;;;;;;;93.60;46.08;;;;;;;0.65;81.07;100745.78;5015906;28;20488;-77
2022/04/12 04:18:08;;;;;;;97.43;45.88;;;;;;;0.67;80.78;100737.78;5014434;28;20033;-77
2022/04/12 04:20:42;;;;;;;99.05;45.85;;;;;;;0.70;80.43;100734.16;5014807;28;20050;-77
2022/04/12 04:23:09;;;;;;;104.28;51.30;;;;;;;0.73;80.26;100744.59;5014647;28;20149;-77
2022/04/12 04:25:34;;;;;;;103.28;47.90;;;;;;;0.72;80.19;100733.78;4998154;28;20034;-77
2022/04/12 04:28:00;;;;;;;100.82;46.55;;;;;;;0.79;80.70;100742.97;5015259;28;20033;-78
2022/04/12 04:30:26;;;;;;;108.05;50.10;;;;;;;0.86;80.53;100754.19;5014296;28;20496;-76
2022/04/12 04:32:52;;;;;;;96.85;44.95;;;;;;;0.91;80.44;100754.97;5014101;28;20494;-77
2022/04/12 04:35:18;;;;;;;117.68;50.22;;;;;;;0.91;80.45;100743.75;4998026;28;20026;-79
2022/04/12 04:37:49;;;;;;;120.95;51.60;;;;;;;1.02;80.26;100759.38;5014144;28;20036;-77
2022/04/12 04:40:36;;;;;;;128.45;54.83;;;;;;;1.07;80.01;100753.34;5013909;28;20491;-78
2022/04/12 04:43:02;;;;;;;119.82;55.50;;;;;;;1.13;80.46;100756.56;4998285;28;20407;-76
2022/04/12 04:45:29;;;;;;;111.85;52.88;;;;;;;1.18;79.86;100754.13;4994125;28;20041;-76
2022/04/12 04:48:02;;;;;;;116.10;53.58;;;;;;;1.25;79.56;100759.72;4995837;28;20113;-77
2022/04/12 04:50:32;;;;;;;107.30;50.38;;;;;;;1.34;79.28;100759.28;4994529;28;20129;-78
2022/04/12 04:53:02;;;;;;;99.32;47.00;;;;;;;1.37;79.15;100757.69;4978548;28;20050;-77
2022/04/12 04:55:27;;;;;;;108.78;48.47;;;;;;;1.39;78.98;100764.47;4994009;28;20031;-77
2022/04/12 04:58:02;;;;;;;97.70;47.83;;;;;;;1.24;79.37;100740.47;4994265;28;20042;-77
2022/04/12 05:00:31;;;;;;;87.82;42.13;;;;;;;1.42;78.92;100769.31;4993779;28;20121;-78
2022/04/12 05:02:57;;;;;;;83.85;41.33;;;;;;;1.45;79.01;100768.47;4994009;28;20038;-82
2022/04/12 05:05:25;;;;;;;93.85;43.40;;;;;;;1.51;78.96;100766.06;4993680;28;20034;-79
2022/04/12 05:07:54;;;;;;;95.72;45.92;;;;;;;1.58;79.20;100772.44;4993711;28;20072;-81
2022/04/12 05:10:25;;;;;;;90.22;41.10;;;;;;;1.66;78.94;100771.22;4993927;28;20034;-79
2022/04/12 05:12:51;;;;;;;89.00;43.55;;;;;;;1.70;78.24;100769.19;4977216;28;20498;-81
2022/04/12 05:15:17;;;;;;;109.53;46.03;;;;;;;1.84;78.26;100776.75;4994768;28;20022;-83
2022/04/12 05:17:58;;;;;;;106.90;50.30;;;;;;;1.92;77.51;100783.16;4993180;28;20037;-78
2022/04/12 05:20:25;;;;;;;115.88;53.92;;;;;;;1.97;77.10;100785.53;4994029;28;20030;-78
2022/04/12 05:22:51;;;;;;;124.93;53.88;;;;;;;2.04;77.13;100785.47;4977227;28;20130;-75
2022/04/12 05:25:17;;;;;;;117.65;51.78;;;;;;;2.10;76.92;100778.22;4977301;28;20098;-77
2022/04/12 05:27:51;;;;;;;104.95;47.78;;;;;;;2.20;76.91;100783.00;4993640;28;20030;-79
2022/04/12 05:30:18;;;;;;;133.77;52.20;;;;;;;2.29;76.44;100785.34;4994407;28;20030;-79
2022/04/12 05:32:44;;;;;;;148.13;50.13;;;;;;;2.39;76.44;100788.09;4991551;28;20447;-79
2022/04/12 05:35:11;;;;;;;109.88;45.70;;;;;;;2.49;76.30;100781.59;4981423;28;20545;-80
2022/04/12 05:37:52;;;;;;;98.55;45.67;;;;;;;2.57;76.03;100785.13;4992025;28;20026;-80
2022/04/12 05:40:22;;;;;;;78.70;40.67;;;;;;;2.59;75.54;100779.91;4986609;28;20049;-79
2022/04/12 05:42:53;;;;;;;83.82;41.08;;;;;;;2.73;75.20;100790.25;5012330;28;20025;-79
2022/04/12 05:45:19;;;;;;;76.07;42.35;;;;;;;2.63;75.32;100768.63;5011306;28;20026;-79
2022/04/12 05:47:46;;;;;;;94.55;43.95;;;;;;;2.85;74.98;100792.59;5011519;28;20036;-79
2022/04/12 05:50:14;;;;;;;85.28;40.75;;;;;;;2.99;75.14;100793.25;5012471;28;20034;-79
2022/04/12 05:52:44;;;;;;;91.63;44.70;;;;;;;3.21;74.91;100799.47;5012135;28;20116;-80
2022/04/12 05:55:15;;;;;;;79.93;40.42;;;;;;;3.42;74.18;100795.66;5012186;28;20101;-79
2022/04/12 05:58:03;;;;;;;78.23;38.03;;;;;;;3.56;72.63;100806.75;5012493;28;20460;-80
2022/04/12 06:00:52;;;;;;;83.70;39.65;;;;;;;3.75;72.41;100802.53;5012491;28;20030;-80
2022/04/12 06:03:36;;;;;;;74.30;33.97;;;;;;;3.92;72.21;100793.06;5012350;28;20054;-78
2022/04/12 06:06:04;;;;;;;69.32;35.17;;;;;;;4.13;71.35;100797.63;5010387;28;20057;-78
2022/04/12 06:08:29;;;;;;;71.47;34.85;;;;;;;4.31;71.94;100798.97;5012076;28;20386;-79
2022/04/12 06:10:55;;;;;;;70.82;32.17;;;;;;;4.45;70.77;100797.16;5012203;28;20034;-77
2022/04/12 06:13:23;;;;;;;63.25;32.85;;;;;;;4.64;70.78;100797.28;5014080;28;20040;-78
2022/04/12 06:15:49;;;;;;;55.60;30.60;;;;;;;4.82;69.86;100796.19;5012265;28;20022;-77
2022/04/12 06:18:15;;;;;;;59.33;30.50;;;;;;;5.02;69.15;100808.38;5012344;28;20025;-78
2022/04/12 06:20:40;;;;;;;79.55;33.13;;;;;;;5.14;68.34;100811.38;5013108;28;20471;-78
2022/04/12 06:23:06;;;;;;;80.20;32.90;;;;;;;5.28;68.59;100813.13;5012046;28;20044;-77
2022/04/12 06:25:31;;;;;;;67.80;29.00;;;;;;;5.41;67.03;100811.31;5009606;28;20112;-76
2022/04/12 06:27:59;;;;;;;53.38;27.10;;;;;;;5.60;66.71;100815.41;5009989;28;20037;-77
2022/04/12 06:30:30;;;;;;;58.65;29.90;;;;;;;5.81;66.11;100812.16;5011827;28;20037;-77
2022/04/12 06:32:58;;;;;;;58.75;29.42;;;;;;;6.10;66.10;100818.06;5012021;28;20534;-76
2022/04/12 06:35:24;;;;;;;47.85;27.80;;;;;;;6.45;65.26;100822.16;5010682;28;20117;-79
2022/04/12 06:37:56;;;;;;;53.85;24.58;;;;;;;7.10;64.75;100823.03;4994142;28;20507;-78
2022/04/12 06:40:24;;;;;;;53.13;24.38;;;;;;;8.56;61.72;100816.94;5011988;28;20081;-78
2022/04/12 06:42:51;;;;;;;72.20;28.55;;;;;;;10.38;52.61;100807.38;5010861;28;20030;-77
2022/04/12 06:45:17;;;;;;;49.20;26.02;;;;;;;11.80;50.95;100801.50;5011516;28;20121;-77
2022/04/12 06:47:43;;;;;;;46.47;26.95;;;;;;;13.03;47.16;100797.69;5011330;28;20026;-76
2022/04/12 06:50:27;;;;;;;53.03;27.40;;;;;;;14.09;43.38;100797.16;4994423;28;20025;-76
2022/04/12 06:52:54;;;;;;;55.65;25.42;;;;;;;15.28;41.44;100791.63;5014057;28;20057;-75
2022/04/12 06:55:20;;;;;;;41.83;20.77;;;;;;;16.41;38.66;100792.50;4997838;28;20042;-78
2022/04/12 06:57:45;;;;;;;64.93;23.00;;;;;;;17.35;34.18;100792.50;5015078;28;20422;-76
2022/04/12 07:00:11;;;;;;;51.58;22.20;;;;;;;18.59;35.60;100795.34;5015724;28;20118;-78
2022/04/12 07:02:49;;;;;;;54.65;24.17;;;;;;;19.78;28.83;100787.53;5014181;28;20059;-76
2022/04/12 07:05:14;;;;;;;30.13;17.52;;;;;;;20.82;31.46;100785.91;5015697;28;20076;-79
2022/04/12 07:07:43;;;;;;;154.38;30.60;;;;;;;21.45;27.96;100797.97;5020568;28;20124;-80
2022/04/12 07:10:18;;;;;;;38.05;18.10;;;;;;;21.76;25.38;100795.75;5020391;28;20112;-81
2022/04/12 07:12:44;;;;;;;42.45;18.08;;;;;;;21.88;27.59;100797.19;5020655;28;20030;-84
2022/04/12 07:15:11;;;;;;;32.25;16.02;;;;;;;21.71;26.65;100808.22;5015809;28;20033;-80
2022/04/12 07:17:36;;;;;;;40.38;17.13;;;;;;;21.78;26.66;100807.59;5016510;28;20117;-78
2022/04/12 07:20:08;;;;;;;29.38;16.05;;;;;;;22.35;25.94;100803.44;5014246;28;20113;-80
2022/04/12 07:22:34;;;;;;;;;;;;;;;23.23;22.33;100803.38;5014693;28;20030;-80
2022/04/12 07:25:00;;;;;;;31.27;15.15;;;;;;;23.80;23.88;100806.78;5015557;28;19913;-81
2022/04/12 07:27:32;;;;;;;22.42;14.63;;;;;;;24.19;21.70;100808.88;5015750;28;20026;-81
2022/04/12 07:29:59;;;;;;;26.45;14.00;;;;;;;24.65;21.44;100804.41;5013565;28;20510;-80
2022/04/12 07:32:26;;;;;;;28.75;14.73;;;;;;;25.51;21.93;100804.03;4997150;28;20036;-80
2022/04/12 07:34:52;;;;;;;23.33;14.82;;;;;;;26.05;19.37;100805.94;5015543;28;20026;-81
2022/04/12 07:37:18;;;;;;;25.15;13.50;;;;;;;26.37;20.92;100802.63;5015389;28;20030;-78
2022/04/12 07:39:44;;;;;;;23.67;13.63;;;;;;;26.92;20.85;100808.84;5015004;28;20037;-78
2022/04/12 07:42:10;;;;;;;20.27;12.70;;;;;;;26.55;18.40;100804.44;5013611;28;20053;-79
2022/04/12 07:44:38;;;;;;;20.63;11.80;;;;;;;26.16;19.73;100807.75;5011769;28;20429;-81
2022/04/12 07:47:04;;;;;;;33.50;14.48;;;;;;;25.94;19.14;100809.22;5012789;28;20048;-82
2022/04/12 07:49:29;;;;;;;16.65;12.00;;;;;;;26.01;21.12;100813.53;5014295;28;20471;-82
2022/04/12 07:51:56;;;;;;;23.23;12.02;;;;;;;26.01;20.84;100816.44;5013206;28;20037;-80
2022/04/12 07:54:21;;;;;;;20.05;11.57;;;;;;;26.19;20.11;100812.47;5013101;28;20030;-82
2022/04/12 07:56:51;;;;;;;19.25;11.60;;;;;;;26.46;19.03;100807.13;5012258;28;20072;-82
2022/04/12 07:59:17;;;;;;;25.47;11.37;;;;;;;26.66;18.17;100809.13;5012860;28;20355;-82
2022/04/12 08:01:45;;;;;;;18.27;11.98;;;;;;;26.74;18.52;100812.84;4994956;28;20311;-84
2022/04/12 08:04:11;;;;;;;18.15;10.60;;;;;;;26.54;19.51;100807.94;5013129;28;20026;-83
2022/04/12 08:06:38;;;;;;;17.08;10.27;;;;;;;26.77;19.29;100814.63;5011938;28;20100;-82
2022/04/12 08:09:03;;;;;;;21.13;11.73;;;;;;;26.30;18.43;100815.06;5011758;28;20026;-82
2022/04/12 08:11:30;;;;;;;17.08;11.00;;;;;;;26.48;19.22;100816.09;5013107;28;20060;-83
2022/04/12 08:13:55;;;;;;;19.60;11.43;;;;;;;26.34;18.18;100806.72;5013009;28;20502;-83
2022/04/12 08:16:21;;;;;;;20.13;10.95;;;;;;;26.23;19.50;100815.81;5011899;28;20026;-83
2022/04/12 08:18:46;;;;;;;18.60;10.30;;;;;;;26.39;17.89;100804.97;5012223;28;20036;-82
2022/04/12 08:21:13;;;;;;;18.52;10.70;;;;;;;26.69;18.36;100810.91;5014532;28;20030;-82
2022/04/12 08:23:39;;;;;;;16.13;10.50;;;;;;;26.91;19.51;100816.03;5013895;28;20036;-83
2022/04/12 08:26:05;;;;;;;15.38;9.35;;;;;;;26.99;17.85;100824.81;5013586;28;20098;-83
2022/04/12 08:28:31;;;;;;;22.17;8.43;;;;;;;26.25;18.11;100815.25;5014385;28;20045;-82
2022/04/12 08:31:05;;;;;;;10.68;7.65;;;;;;;25.36;19.42;100815.56;5012125;28;20038;-82
2022/04/12 08:33:30;;;;;;;9.32;5.85;;;;;;;25.01;17.56;100825.78;5013570;28;20033;-81
2022/04/12 08:35:56;;;;;;;17.15;6.13;;;;;;;24.37;19.42;100816.72;5012775;28;20030;-80
2022/04/12 08:38:23;;;;;;;8.00;5.45;;;;;;;23.94;18.38;100808.34;5014104;28;20037;-80
2022/04/12 08:40:50;;;;;;;12.27;6.82;;;;;;;24.02;19.62;100823.78;5014206;28;20104;-82
2022/04/12 08:43:21;;;;;;;16.05;7.57;;;;;;;23.91;18.20;100821.09;5013383;28;20487;-80
2022/04/12 08:45:46;;;;;;;27.67;7.97;;;;;;;24.00;19.40;100812.69;4987449;28;20056;-80
2022/04/12 08:48:27;;;;;;;17.17;7.07;;;;;;;23.84;19.03;100813.03;5013801;28;20026;-82
2022/04/12 08:50:54;;;;;;;23.27;7.88;;;;;;;23.60;18.63;100809.03;5011904;28;20028;-82
2022/04/12 08:53:20;;;;;;;10.35;6.10;;;;;;;23.54;19.28;100799.59;5013602;28;20018;-82
2022/04/12 08:55:47;;;;;;;17.85;6.82;;;;;;;23.55;19.55;100806.22;5013358;28;20478;-81
2022/04/12 08:58:13;;;;;;;16.48;6.72;;;;;;;23.61;19.26;100798.97;5013062;28;20029;-80
2022/04/12 09:00:40;;;;;;;9.63;5.68;;;;;;;23.67;19.53;100781.41;4996224;28;20490;-81
2022/04/12 09:03:06;;;;;;;9.98;5.88;;;;;;;23.93;17.70;100800.94;5012690;28;20076;-82
2022/04/12 09:05:42;;;;;;;15.38;6.30;;;;;;;23.64;17.79;100797.03;5014095;28;20418;-82
2022/04/12 09:08:44;;;;;;;7.82;5.18;;;;;;;23.39;19.71;100795.66;5013430;28;20568;-82
2022/04/12 09:11:14;;;;;;;12.27;4.72;;;;;;;22.45;19.15;100781.38;4963186;28;20438;-81
2022/04/12 09:13:40;;;;;;;5.30;4.20;;;;;;;21.71;20.29;100788.69;5001551;28;20067;-80
2022/04/12 09:16:09;;;;;;;9.57;4.65;;;;;;;21.91;22.38;100796.88;5011843;28;20030;-80
2022/04/12 09:18:39;;;;;;;6.85;4.70;;;;;;;21.67;21.26;100787.41;5013240;28;20025;-80
2022/04/12 09:21:20;;;;;;;11.18;4.70;;;;;;;21.75;20.18;100802.91;4995673;28;20128;-81
2022/04/12 09:23:55;;;;;;;9.10;4.68;;;;;;;21.37;21.61;100790.38;5011520;28;20092;-80
2022/04/12 09:26:27;;;;;;;6.85;3.75;;;;;;;21.25;22.86;100788.94;4995790;28;20026;-81
2022/04/12 09:28:55;;;;;;;14.50;5.10;;;;;;;21.10;23.08;100786.44;5011472;28;20030;-79
2022/04/12 09:31:21;;;;;;;23.63;6.00;;;;;;;20.95;21.03;100774.47;5011445;28;20086;-79
2022/04/12 09:33:49;;;;;;;11.70;6.18;;;;;;;20.67;20.85;100795.72;4970685;28;20034;-80
2022/04/12 09:36:16;;;;;;;18.55;6.35;;;;;;;20.56;22.55;100795.03;4978401;28;20057;-80
2022/04/12 09:38:44;;;;;;;11.38;5.50;;;;;;;20.67;22.18;100794.97;4995304;28;20168;-80
2022/04/12 09:41:12;;;;;;;10.32;5.53;;;;;;;21.01;22.72;100795.47;5013028;28;20573;-81
2022/04/12 09:44:08;;;;;;;7.68;4.38;;;;;;;21.08;23.91;100792.75;5013532;28;20384;-79
2022/04/12 09:46:39;;;;;;;16.90;4.65;;;;;;;20.73;21.71;100794.91;5013859;28;20022;-80
2022/04/12 09:49:06;;;;;;;8.65;4.80;;;;;;;20.71;22.76;100795.47;4994878;28;20053;-80
2022/04/12 09:51:36;;;;;;;7.70;4.50;;;;;;;20.34;23.82;100778.59;5012768;28;20524;-81
2022/04/12 09:54:07;;;;;;;7.60;4.10;;;;;;;20.04;24.38;100781.38;5012317;28;20394;-80
2022/04/12 09:56:39;;;;;;;8.73;4.68;;;;;;;19.77;23.03;100788.88;5013626;28;20032;-81
2022/04/12 09:59:07;;;;;;;13.65;5.13;;;;;;;19.66;24.76;100785.25;4996648;28;20030;-80
2022/04/12 10:01:39;;;;;;;6.63;4.25;;;;;;;19.50;24.11;100783.97;5012865;28;20520;-80
2022/04/12 10:04:10;;;;;;;;;;;;;;;19.57;22.29;100786.34;4997747;28;20030;-79
2022/04/12 10:06:55;;;;;;;10.20;5.03;;;;;;;19.22;22.61;100781.13;5012864;28;19951;-80
2022/04/12 10:09:20;;;;;;;16.95;5.50;;;;;;;19.15;25.13;100775.88;5014068;28;20026;-79
2022/04/12 10:11:49;;;;;;;9.77;5.40;;;;;;;19.09;24.69;100774.34;5012667;28;20135;-79
2022/04/12 10:14:15;;;;;;;17.25;5.32;;;;;;;19.19;25.47;100770.63;5012464;28;20042;-79
2022/04/12 10:16:41;;;;;;;11.93;4.85;;;;;;;19.10;25.55;100778.78;5012269;28;20332;-80
2022/04/12 10:19:07;;;;;;;8.30;5.10;;;;;;;19.10;25.70;100761.44;4996237;28;20080;-80
2022/04/12 10:21:34;;;;;;;14.93;5.72;;;;;;;19.11;25.37;100766.72;5011921;28;20022;-81
2022/04/12 10:24:02;;;;;;;22.95;5.75;;;;;;;18.71;24.50;100773.03;4979721;28;20430;-80
2022/04/12 10:26:29;;;;;;;24.08;6.13;;;;;;;18.65;26.65;100758.59;4995331;28;20018;-80
2022/04/12 10:29:00;;;;;;;14.60;5.65;;;;;;;18.15;24.81;100761.41;5012044;28;20022;-80
2022/04/12 10:31:31;;;;;;;9.27;5.10;;;;;;;17.79;26.64;100757.38;5012146;28;20068;-80
2022/04/12 10:34:09;;;;;;;12.68;5.65;;;;;;;17.74;25.23;100752.38;4995231;28;20388;-80
2022/04/12 10:37:09;;;;;;;10.75;6.05;;;;;;;17.58;27.35;100750.97;5011954;28;20081;-79
2022/04/12 10:39:55;;;;;;;7.00;4.80;;;;;;;17.43;27.46;100759.03;5008564;28;20034;-79
2022/04/12 10:42:27;;;;;;;6.38;4.35;;;;;;;17.10;26.49;100747.31;4997213;28;20112;-79
2022/04/12 10:44:58;;;;;;;6.68;4.70;;;;;;;16.81;28.17;100751.31;5008850;28;20052;-79
2022/04/12 10:47:46;;;;;;;7.57;4.93;;;;;;;16.75;28.96;100754.13;4996240;28;20066;-79
2022/04/12 10:50:17;;;;;;;6.47;5.03;;;;;;;16.81;28.89;100752.09;5004511;28;20041;-81
2022/04/12 10:52:46;;;;;;;21.75;6.28;;;;;;;16.96;27.69;100749.06;4979212;28;20073;-79
2022/04/12 10:55:15;;;;;;;9.00;5.35;;;;;;;16.93;27.34;100752.16;5011787;28;20479;-79
2022/04/12 10:57:40;;;;;;;52.13;10.98;;;;;;;16.70;26.77;100748.34;5011862;28;20065;-79
2022/04/12 11:00:12;;;;;;;8.13;5.03;;;;;;;16.49;28.76;100736.09;5013022;28;20025;-79
2022/04/12 11:02:42;;;;;;;15.38;5.88;;;;;;;16.40;27.40;100736.28;5012118;28;20042;-79
2022/04/12 11:05:43;;;;;;;10.15;5.32;;;;;;;16.12;28.79;100710.16;4995832;28;20467;-81
2022/04/12 11:08:24;;;;;;;12.32;5.78;;;;;;;16.25;29.56;100732.75;5010018;28;20491;-80
2022/04/12 11:10:52;;;;;;;7.22;5.15;;;;;;;16.11;28.38;100733.66;5012852;28;20034;-80
2022/04/12 11:13:24;;;;;;;12.93;5.78;;;;;;;16.05;31.10;100719.22;5013436;28;20026;-80
2022/04/12 11:16:06;;;;;;;15.13;7.25;;;;;;;16.15;29.88;100725.59;5011820;28;20022;-80
2022/04/12 11:18:49;;;;;;;9.63;5.25;;;;;;;15.98;29.61;100720.47;5011805;28;20229;-80
2022/04/12 11:21:21;;;;;;;7.43;5.50;;;;;;;15.88;29.12;100716.19;5013090;28;20036;-79
2022/04/12 11:24:01;;;;;;;8.18;5.65;;;;;;;15.83;32.36;100719.81;5012829;28;20034;-79
2022/04/12 11:26:45;;;;;;;10.10;5.00;;;;;;;15.97;33.87;100715.25;5013247;28;20022;-79